createdAt,value
2022-09-09T00:00:49.651Z,1.73
2022-09-09T00:03:25.450Z,1.40
2022-09-09T00:06:01.288Z,1.30
2022-09-09T00:08:40.675Z,1.57
2022-09-09T00:11:14.470Z,1.40
2022-09-09T00:13:48.189Z,1.77
2022-09-09T00:16:20.774Z,1.33
2022-09-09T00:18:59.715Z,1.77
2022-09-09T00:21:35.217Z,1.20
2022-09-09T00:24:10.481Z,1.90
2022-09-09T00:26:43.056Z,1.63
2022-09-09T00:29:22.171Z,1.40
2022-09-09T00:31:50.211Z,1.87
2022-09-09T00:34:23.475Z,1.47
2022-09-09T00:36:54.143Z,1.37
2022-09-09T00:39:29.668Z,1.57
2022-09-09T00:42:14.418Z,1.60
2022-09-09T00:44:53.774Z,1.50
2022-09-09T00:47:46.867Z,1.47
2022-09-09T00:50:38.492Z,1.50
2022-09-09T00:53:18.512Z,1.30
2022-09-09T00:55:51.352Z,1.40
2022-09-09T00:58:19.075Z,1.83
2022-09-09T01:00:52.071Z,1.50
2022-09-09T01:03:36.561Z,1.60
2022-09-09T01:06:15.329Z,1.20
2022-09-09T01:09:10.580Z,1.73
2022-09-09T01:11:51.255Z,1.30
2022-09-09T01:14:33.219Z,1.33
2022-09-09T01:17:06.502Z,1.77
2022-09-09T01:19:47.426Z,1.70
2022-09-09T01:22:28.534Z,1.37
2022-09-09T01:25:19.105Z,1.20
2022-09-09T01:27:50.338Z,1.80
2022-09-09T01:30:20.208Z,2.17
2022-09-09T01:32:51.134Z,1.67
2022-09-09T01:35:31.316Z,1.77
2022-09-09T01:37:59.083Z,1.30
2022-09-09T01:40:27.606Z,1.20
2022-09-09T01:42:57.545Z,1.70
2022-09-09T01:45:25.958Z,1.70
2022-09-09T01:47:54.673Z,1.50
2022-09-09T01:50:23.381Z,2.17
2022-09-09T01:52:54.610Z,1.73
2022-09-09T01:55:59.291Z,1.90
2022-09-09T01:58:36.178Z,1.20
2022-09-09T02:01:12.417Z,1.67
2022-09-09T02:03:42.768Z,1.50
2022-09-09T02:06:22.452Z,1.80
2022-09-09T02:08:52.129Z,1.70
2022-09-09T02:11:21.455Z,2.07
2022-09-09T02:13:54.927Z,1.30
2022-09-09T02:16:28.043Z,2.10
2022-09-09T02:19:00.337Z,1.50
2022-09-09T02:21:30.850Z,1.60
2022-09-09T02:24:01.503Z,1.37
2022-09-09T02:26:29.730Z,1.40
2022-09-09T02:29:01.450Z,1.50
2022-09-09T02:31:29.935Z,1.30
2022-09-09T02:34:01.505Z,1.13
2022-09-09T02:36:34.402Z,1.60
2022-09-09T02:39:02.779Z,1.10
2022-09-09T02:41:33.700Z,1.63
2022-09-09T02:44:03.421Z,1.37
2022-09-09T02:46:46.292Z,1.53
2022-09-09T02:49:22.275Z,1.70
2022-09-09T02:51:56.018Z,1.40
2022-09-09T02:54:31.758Z,1.37
2022-09-09T02:57:06.486Z,1.60
2022-09-09T02:59:35.632Z,0.80
2022-09-09T03:02:03.709Z,0.97
2022-09-09T03:04:32.095Z,1.00
2022-09-09T03:07:00.584Z,1.30
2022-09-09T03:09:28.326Z,0.93
2022-09-09T03:11:56.593Z,1.20
2022-09-09T03:14:26.036Z,1.10
2022-09-09T03:16:57.325Z,1.10
2022-09-09T03:19:25.570Z,1.37
2022-09-09T03:21:53.206Z,1.10
2022-09-09T03:24:20.859Z,1.07
2022-09-09T03:26:48.477Z,1.00
2022-09-09T03:29:16.498Z,1.10
2022-09-09T03:31:44.261Z,1.60
2022-09-09T03:34:14.580Z,1.40
2022-09-09T03:36:42.563Z,1.37
2022-09-09T03:39:10.200Z,1.17
2022-09-09T03:41:38.286Z,1.10
2022-09-09T03:44:05.954Z,1.17
2022-09-09T03:46:34.771Z,0.90
2022-09-09T03:49:02.447Z,0.90
2022-09-09T03:51:31.404Z,1.10
2022-09-09T03:53:59.251Z,1.03
2022-09-09T03:56:26.963Z,0.77
2022-09-09T03:58:54.972Z,0.90
2022-09-09T04:01:22.676Z,1.13
2022-09-09T04:03:51.275Z,1.33
2022-09-09T04:06:19.203Z,1.47
2022-09-09T04:08:49.527Z,1.30
2022-09-09T04:11:17.455Z,0.93
2022-09-09T04:13:45.548Z,0.90
2022-09-09T04:16:15.707Z,1.40
2022-09-09T04:18:43.686Z,1.27
2022-09-09T04:21:13.054Z,1.10
2022-09-09T04:23:41.150Z,1.60
2022-09-09T04:26:10.985Z,1.33
2022-09-09T04:28:39.191Z,1.10
2022-09-09T04:31:08.667Z,1.53
2022-09-09T04:33:40.101Z,1.20
2022-09-09T04:36:09.291Z,1.00
2022-09-09T04:38:37.105Z,1.20
2022-09-09T04:41:05.190Z,1.60
2022-09-09T04:43:34.317Z,1.50
2022-09-09T04:46:02.079Z,1.30
2022-09-09T04:48:29.807Z,1.60
2022-09-09T04:50:59.135Z,1.50
2022-09-09T04:53:28.097Z,1.50
2022-09-09T04:56:03.585Z,1.60
2022-09-09T04:58:31.430Z,2.10
2022-09-09T05:01:07.374Z,1.63
2022-09-09T05:03:35.513Z,1.53
2022-09-09T05:06:13.883Z,2.00
2022-09-09T05:08:42.926Z,1.70
2022-09-09T05:11:18.351Z,1.60
2022-09-09T05:13:46.793Z,1.47
2022-09-09T05:16:16.676Z,1.70
2022-09-09T05:18:45.002Z,1.37
2022-09-09T05:21:13.683Z,1.33
2022-09-09T05:23:41.811Z,1.33
2022-09-09T05:26:17.197Z,1.37
2022-09-09T05:28:45.970Z,1.53
2022-09-09T05:31:17.194Z,1.50
2022-09-09T05:33:47.283Z,1.63
2022-09-09T05:36:16.651Z,1.60
2022-09-09T05:38:45.227Z,1.80
2022-09-09T05:41:13.418Z,1.73
2022-09-09T05:43:41.332Z,1.40
2022-09-09T05:46:11.148Z,1.70
2022-09-09T05:48:42.222Z,1.37
2022-09-09T05:51:13.585Z,1.60
2022-09-09T05:53:41.390Z,1.50
2022-09-09T05:56:11.803Z,1.70
2022-09-09T05:58:40.258Z,1.80
2022-09-09T06:01:10.814Z,1.50
2022-09-09T06:03:41.462Z,1.53
2022-09-09T06:06:10.735Z,1.50
2022-09-09T06:08:40.574Z,2.07
2022-09-09T06:11:09.994Z,2.33
2022-09-09T06:13:38.451Z,2.63
2022-09-09T06:16:08.160Z,1.50
2022-09-09T06:18:36.021Z,1.70
2022-09-09T06:21:07.482Z,1.80
2022-09-09T06:23:36.645Z,1.90
2022-09-09T06:26:07.677Z,1.67
2022-09-09T06:28:35.952Z,1.90
2022-09-09T06:31:05.623Z,1.60
2022-09-09T06:33:35.738Z,2.33
2022-09-09T06:36:06.020Z,1.33
2022-09-09T06:38:33.792Z,1.87
2022-09-09T06:41:02.791Z,1.37
2022-09-09T06:43:30.630Z,1.53
2022-09-09T06:45:59.335Z,1.70
2022-09-09T06:48:28.824Z,1.50
2022-09-09T06:51:03.678Z,1.27
2022-09-09T06:53:34.508Z,2.00
2022-09-09T06:56:03.079Z,2.00
2022-09-09T06:58:31.330Z,1.90
2022-09-09T07:01:04.944Z,1.80
2022-09-09T07:03:32.655Z,1.70
2022-09-09T07:06:00.574Z,1.73
2022-09-09T07:08:29.196Z,1.40
2022-09-09T07:11:10.219Z,1.87
2022-09-09T07:13:39.809Z,2.13
2022-09-09T07:16:08.677Z,2.10
2022-09-09T07:18:37.033Z,1.87
2022-09-09T07:21:05.629Z,1.70
2022-09-09T07:23:36.289Z,1.67
2022-09-09T07:26:10.239Z,1.57
2022-09-09T07:28:38.208Z,1.50
2022-09-09T07:31:07.325Z,2.10
2022-09-09T07:33:37.142Z,1.40
2022-09-09T07:36:08.059Z,1.57
2022-09-09T07:38:40.942Z,1.40
2022-09-09T07:41:13.255Z,2.07
2022-09-09T07:43:41.832Z,1.70
2022-09-09T07:46:10.954Z,1.73
2022-09-09T07:48:38.928Z,1.40
2022-09-09T07:51:09.083Z,1.50
2022-09-09T07:53:37.416Z,1.50
2022-09-09T07:56:06.895Z,1.80
2022-09-09T07:58:38.407Z,2.00
2022-09-09T08:01:12.385Z,1.30
2022-09-09T08:03:40.449Z,1.40
2022-09-09T08:06:10.167Z,1.70
2022-09-09T08:08:39.605Z,1.33
2022-09-09T08:11:09.936Z,1.57
2022-09-09T08:13:39.286Z,1.10
2022-09-09T08:16:09.061Z,1.70
2022-09-09T08:18:37.419Z,1.40
2022-09-09T08:21:13.674Z,2.70
2022-09-09T08:23:43.012Z,2.27
2022-09-09T08:26:14.700Z,1.63
2022-09-09T08:28:44.748Z,1.17
2022-09-09T08:31:15.352Z,1.10
2022-09-09T08:33:46.362Z,1.30
2022-09-09T08:36:16.152Z,1.50
2022-09-09T08:38:44.090Z,1.50
2022-09-09T08:41:29.882Z,1.20
2022-09-09T08:44:08.440Z,1.60
2022-09-09T08:46:47.461Z,1.57
2022-09-09T08:49:29.451Z,1.23
2022-09-09T08:51:59.173Z,1.33
2022-09-09T08:54:51.093Z,1.30
2022-09-09T08:57:23.548Z,1.07
2022-09-09T08:59:54.656Z,1.27
2022-09-09T09:02:27.695Z,1.37
2022-09-09T09:05:07.414Z,1.10
2022-09-09T09:07:46.700Z,1.47
2022-09-09T09:10:41.263Z,1.40
2022-09-09T09:13:16.891Z,1.53
2022-09-09T09:15:49.360Z,1.30
2022-09-09T09:18:19.382Z,2.17
2022-09-09T09:20:56.081Z,1.30
2022-09-09T09:23:26.111Z,1.30
2022-09-09T09:26:00.467Z,1.80
2022-09-09T09:28:31.358Z,1.30
2022-09-09T09:31:05.399Z,1.63
2022-09-09T09:33:41.033Z,1.20
2022-09-09T09:36:09.725Z,1.00
2022-09-09T09:41:39.985Z,1.13
2022-09-09T09:44:23.699Z,0.97
2022-09-09T09:46:52.830Z,1.27
2022-09-09T09:49:20.739Z,1.00
2022-09-09T09:51:48.978Z,0.90
2022-09-09T09:54:24.562Z,1.00
2022-09-09T09:56:52.378Z,0.90
2022-09-09T09:59:41.309Z,1.10
2022-09-09T10:02:21.938Z,1.10
2022-09-09T10:04:49.839Z,1.23
2022-09-09T10:07:21.622Z,0.93
2022-09-09T10:09:55.313Z,1.10
2022-09-09T10:12:32.927Z,1.17
2022-09-09T10:15:07.890Z,1.30
2022-09-09T10:17:42.955Z,1.30
2022-09-09T10:20:24.969Z,1.30
2022-09-09T10:23:08.346Z,1.43
2022-09-09T10:25:57.342Z,1.40
2022-09-09T10:28:35.238Z,1.07
2022-09-09T10:31:17.341Z,1.10
2022-09-09T10:33:52.674Z,1.30
2022-09-09T10:36:24.022Z,1.07
2022-09-09T10:39:00.134Z,1.33
2022-09-09T10:41:42.535Z,1.23
2022-09-09T10:44:23.446Z,1.67
2022-09-09T10:47:08.499Z,1.40
2022-09-09T10:50:07.657Z,1.20
2022-09-09T10:52:44.808Z,1.67
2022-09-09T10:55:16.580Z,1.67
2022-09-09T10:57:48.889Z,1.23
2022-09-09T11:00:21.455Z,1.40
2022-09-09T11:02:54.867Z,1.60
2022-09-09T11:05:30.901Z,1.30
2022-09-09T11:08:03.423Z,1.57
2022-09-09T11:10:41.033Z,1.47
2022-09-09T11:13:17.136Z,1.50
2022-09-09T11:15:51.302Z,1.20
2022-09-09T11:18:22.546Z,1.50
2022-09-09T11:20:58.743Z,1.60
2022-09-09T11:23:33.296Z,1.17
2022-09-09T11:26:05.495Z,1.20
2022-09-09T11:28:48.604Z,1.00
2022-09-09T11:31:32.851Z,1.23
2022-09-09T11:34:20.213Z,1.33
2022-09-09T11:37:10.999Z,1.10
2022-09-09T11:40:10.799Z,1.10
2022-09-09T11:42:38.769Z,1.10
2022-09-09T11:45:21.659Z,1.20
2022-09-09T11:47:55.635Z,1.17
2022-09-09T11:50:32.456Z,0.93
2022-09-09T11:53:23.608Z,1.00
2022-09-09T11:56:10.499Z,0.70
2022-09-09T11:58:55.330Z,1.27
2022-09-09T12:01:32.458Z,0.60
2022-09-09T12:04:30.295Z,0.70
2022-09-09T12:07:00.984Z,0.80
2022-09-09T12:09:35.969Z,0.70
2022-09-09T12:12:24.659Z,0.70
2022-09-09T12:15:21.705Z,0.77
2022-09-09T12:17:52.438Z,0.87
2022-09-09T12:20:22.428Z,0.70
2022-09-09T12:23:01.655Z,0.70
2022-09-09T12:25:39.059Z,0.60
2022-09-09T12:28:13.464Z,0.80
2022-09-09T12:30:51.910Z,0.70
2022-09-09T12:33:21.139Z,0.70
2022-09-09T12:35:54.230Z,0.73
2022-09-09T12:38:29.571Z,0.80
2022-09-09T12:40:59.852Z,0.60
2022-09-09T12:43:29.317Z,0.60
2022-09-09T12:46:01.605Z,0.70
2022-09-09T12:48:37.777Z,0.73
2022-09-09T12:51:09.402Z,0.90
2022-09-09T12:53:40.718Z,0.70
2022-09-09T12:56:11.842Z,0.70
2022-09-09T12:58:41.301Z,1.30
2022-09-09T13:01:23.208Z,1.17
2022-09-09T13:03:50.963Z,0.70
2022-09-09T13:06:28.048Z,0.90
2022-09-09T13:08:59.519Z,0.70
2022-09-09T13:11:31.584Z,0.97
2022-09-09T13:14:01.299Z,0.70
2022-09-09T13:16:32.570Z,0.87
2022-09-09T13:19:02.383Z,1.00
2022-09-09T13:21:35.426Z,1.10
2022-09-09T13:24:05.169Z,0.90
2022-09-09T13:26:34.178Z,0.83
2022-09-09T13:29:22.047Z,0.80
2022-09-09T13:31:53.556Z,0.63
2022-09-09T13:34:32.303Z,0.90
2022-09-09T13:37:04.400Z,0.80
2022-09-09T13:39:32.412Z,0.73
2022-09-09T13:42:02.100Z,0.70
2022-09-09T13:44:32.458Z,0.70
2022-09-09T13:47:10.230Z,0.60
2022-09-09T13:49:38.407Z,0.90
2022-09-09T13:52:11.120Z,0.70
2022-09-09T13:54:38.799Z,0.70
2022-09-09T13:57:16.024Z,0.70
2022-09-09T14:00:01.629Z,1.00
2022-09-09T14:02:32.083Z,0.80
2022-09-09T14:05:00.277Z,0.90
2022-09-09T14:07:29.345Z,0.70
2022-09-09T14:09:57.223Z,0.80
2022-09-09T14:12:27.427Z,1.10
2022-09-09T14:14:55.352Z,0.87
2022-09-09T14:17:23.881Z,0.93
2022-09-09T14:19:52.639Z,2.30
2022-09-09T14:22:21.139Z,1.73
2022-09-09T14:24:48.793Z,0.80
2022-09-09T14:27:16.992Z,0.90
2022-09-09T14:29:46.831Z,0.70
2022-09-09T14:32:14.881Z,0.60
2022-09-09T14:34:42.515Z,0.70
2022-09-09T14:37:10.388Z,0.80
2022-09-09T14:39:38.456Z,0.60
2022-09-09T14:42:07.000Z,0.60
2022-09-09T14:44:34.640Z,0.70
2022-09-09T14:47:03.671Z,0.57
2022-09-09T14:49:31.289Z,0.80
2022-09-09T14:51:58.958Z,0.83
2022-09-09T14:54:27.357Z,0.50
2022-09-09T14:56:55.001Z,0.97
2022-09-09T14:59:23.247Z,0.83
2022-09-09T15:01:51.112Z,0.80
2022-09-09T15:04:20.589Z,0.70
2022-09-09T15:06:49.443Z,0.90
2022-09-09T15:09:17.493Z,0.80
2022-09-09T15:11:45.411Z,0.87
2022-09-09T15:14:13.366Z,0.87
2022-09-09T15:16:41.721Z,0.80
2022-09-09T15:19:10.140Z,1.27
2022-09-09T15:21:39.981Z,2.37
2022-09-09T15:24:09.214Z,2.30
2022-09-09T15:26:40.157Z,1.57
2022-09-09T15:29:08.441Z,1.60
2022-09-09T15:31:36.985Z,0.70
2022-09-09T15:34:07.323Z,0.80
2022-09-09T15:36:37.025Z,0.87
2022-09-09T15:39:08.493Z,0.80
2022-09-09T15:41:36.750Z,0.97
2022-09-09T15:44:04.449Z,1.20
2022-09-09T15:46:35.463Z,0.80
2022-09-09T15:49:06.706Z,1.30
2022-09-09T15:51:42.586Z,1.87
2022-09-09T15:54:13.957Z,1.17
2022-09-09T15:56:42.713Z,1.13
2022-09-09T15:59:10.679Z,0.80
2022-09-09T16:01:38.816Z,1.07
2022-09-09T16:04:07.408Z,1.03
2022-09-09T16:06:35.642Z,0.90
2022-09-09T16:09:08.835Z,1.07
2022-09-09T16:11:42.994Z,1.10
2022-09-09T16:14:12.657Z,0.90
2022-09-09T16:16:41.798Z,1.10
2022-09-09T16:19:13.054Z,0.93
2022-09-09T16:21:45.848Z,0.93
2022-09-09T16:24:16.046Z,0.90
2022-09-09T16:26:47.607Z,1.20
2022-09-09T16:29:16.283Z,1.20
2022-09-09T16:31:44.362Z,1.00
2022-09-09T16:34:12.741Z,0.90
2022-09-09T16:36:44.495Z,1.37
2022-09-09T16:39:13.801Z,1.60
2022-09-09T16:41:43.647Z,0.90
2022-09-09T16:44:16.556Z,0.90
2022-09-09T16:46:45.758Z,0.70
2022-09-09T16:49:16.785Z,0.70
2022-09-09T16:51:46.007Z,1.00
2022-09-09T16:54:15.004Z,0.80
2022-09-09T16:56:44.762Z,0.90
2022-09-09T16:59:16.329Z,0.90
2022-09-09T17:01:46.862Z,0.73
2022-09-09T17:04:21.167Z,1.10
2022-09-09T17:06:51.174Z,0.50
2022-09-09T17:09:21.026Z,0.43
2022-09-09T17:11:52.010Z,0.70
2022-09-09T17:14:24.836Z,0.60
2022-09-09T17:16:52.901Z,0.60
2022-09-09T17:19:20.710Z,0.70
2022-09-09T17:22:14.983Z,0.80
2022-09-09T17:24:39.393Z,0.70
2022-09-09T17:27:07.342Z,0.80
2022-09-09T17:29:37.192Z,0.90
2022-09-09T17:32:06.325Z,0.93
2022-09-09T17:34:34.233Z,0.70
2022-09-09T17:37:02.112Z,0.80
2022-09-09T17:39:30.104Z,0.80
2022-09-09T17:41:58.199Z,0.80
2022-09-09T17:44:26.273Z,1.10
2022-09-09T17:46:55.501Z,0.80
2022-09-09T17:49:23.354Z,0.80
2022-09-09T17:51:51.076Z,1.17
2022-09-09T17:54:20.490Z,1.50
2022-09-09T17:56:49.623Z,1.07
2022-09-09T17:59:19.120Z,1.20
2022-09-09T18:01:49.329Z,1.10
2022-09-09T18:04:20.426Z,1.30
2022-09-09T18:06:50.353Z,0.90
2022-09-09T18:09:20.371Z,1.10
2022-09-09T18:11:51.441Z,0.70
2022-09-09T18:14:21.255Z,1.10
2022-09-09T18:16:49.276Z,1.47
2022-09-09T18:19:21.902Z,0.83
2022-09-09T18:21:50.536Z,1.63
2022-09-09T18:24:21.035Z,1.10
2022-09-09T18:26:49.959Z,0.90
2022-09-09T18:29:19.966Z,1.00
2022-09-09T18:31:48.611Z,0.90
2022-09-09T18:34:19.529Z,1.07
2022-09-09T18:36:49.377Z,1.57
2022-09-09T18:39:19.913Z,1.00
2022-09-09T18:41:49.592Z,0.93
2022-09-09T18:44:20.694Z,1.63
2022-09-09T18:46:49.530Z,0.87
2022-09-09T18:49:19.400Z,3.10
2022-09-09T18:51:47.737Z,1.90
2022-09-09T18:54:17.787Z,1.07
2022-09-09T18:56:45.779Z,0.90
2022-09-09T18:59:19.150Z,1.20
2022-09-09T19:01:47.191Z,1.07
2022-09-09T19:04:15.448Z,1.10
2022-09-09T19:06:48.054Z,1.10
2022-09-09T19:09:18.051Z,1.30
2022-09-09T19:11:46.917Z,1.40
2022-09-09T19:14:16.739Z,1.20
2022-09-09T19:16:45.555Z,0.90
2022-09-09T19:19:17.188Z,1.00
2022-09-09T19:21:46.998Z,1.17
2022-09-09T19:24:17.290Z,1.33
2022-09-09T19:26:48.160Z,2.00
2022-09-09T19:29:19.441Z,1.30
2022-09-09T19:32:09.733Z,1.23
2022-09-09T19:34:36.734Z,1.10
2022-09-09T19:37:07.200Z,1.03
2022-09-09T19:39:35.546Z,1.00
2022-09-09T19:42:03.679Z,1.07
2022-09-09T19:44:31.647Z,1.27
2022-09-09T19:47:00.907Z,1.30
2022-09-09T19:49:30.739Z,1.20
2022-09-09T19:51:58.745Z,1.07
2022-09-09T19:54:28.486Z,1.13
2022-09-09T19:56:56.627Z,1.20
2022-09-09T19:59:24.318Z,0.83
2022-09-09T20:01:52.479Z,1.20
2022-09-09T20:04:20.377Z,1.10
2022-09-09T20:06:48.427Z,1.30
2022-09-09T20:09:19.740Z,1.00
2022-09-09T20:11:50.610Z,0.80
2022-09-09T20:14:19.028Z,1.00
2022-09-09T20:16:47.158Z,1.00
2022-09-09T20:19:17.262Z,1.33
2022-09-09T20:21:48.372Z,1.40
2022-09-09T20:24:18.041Z,1.07
2022-09-09T20:26:47.951Z,1.10
2022-09-09T20:29:18.994Z,1.40
2022-09-09T20:31:47.427Z,1.10
2022-09-09T20:34:16.378Z,1.40
2022-09-09T20:36:44.773Z,1.07
2022-09-09T20:39:15.965Z,0.80
2022-09-09T20:41:45.603Z,0.90
2022-09-09T20:44:16.071Z,1.03
2022-09-09T20:46:48.822Z,1.07
2022-09-09T20:49:18.339Z,1.10
2022-09-09T20:51:47.634Z,1.00
2022-09-09T20:54:20.605Z,0.97
2022-09-09T20:56:49.664Z,1.47
2022-09-09T20:59:19.012Z,0.90
2022-09-09T21:01:48.730Z,0.97
2022-09-09T21:04:18.486Z,1.00
2022-09-09T21:06:46.520Z,1.00
2022-09-09T21:09:14.888Z,1.13
2022-09-09T21:11:42.991Z,1.00
2022-09-09T21:14:11.866Z,1.30
2022-09-09T21:16:39.627Z,1.30
2022-09-09T21:19:09.461Z,1.10
2022-09-09T21:21:37.286Z,1.20
2022-09-09T21:24:05.520Z,1.00
2022-09-09T21:26:33.247Z,0.90
2022-09-09T21:29:00.930Z,1.50
2022-09-09T21:31:28.770Z,0.83
2022-09-09T21:33:57.057Z,1.00
2022-09-09T21:36:28.186Z,1.23
2022-09-09T21:38:56.680Z,0.90
2022-09-09T21:41:24.486Z,1.00
2022-09-09T21:43:54.023Z,1.20
2022-09-09T21:46:23.682Z,1.20
2022-09-09T21:48:51.644Z,0.87
2022-09-09T21:51:19.825Z,1.20
2022-09-09T21:53:48.854Z,1.00
2022-09-09T21:56:18.331Z,1.00
2022-09-09T21:58:46.790Z,0.80
2022-09-09T22:01:16.610Z,1.10
2022-09-09T22:03:44.536Z,0.87
2022-09-09T22:06:14.758Z,1.20
2022-09-09T22:08:42.686Z,1.00
2022-09-09T22:11:14.573Z,1.10
2022-09-09T22:13:43.086Z,1.13
2022-09-09T22:16:13.742Z,0.97
2022-09-09T22:18:42.094Z,1.03
2022-09-09T22:21:11.677Z,0.93
2022-09-09T22:23:39.312Z,1.17
2022-09-09T22:26:07.756Z,1.30
2022-09-09T22:28:38.543Z,1.10
2022-09-09T22:31:07.066Z,0.80
2022-09-09T22:33:34.780Z,1.00
2022-09-09T22:36:02.846Z,1.10
2022-09-09T22:38:31.115Z,1.10
2022-09-09T22:40:58.824Z,1.33
2022-09-09T22:43:26.647Z,1.00
2022-09-09T22:45:55.754Z,1.10
2022-09-09T22:48:24.659Z,1.00
2022-09-09T22:50:52.877Z,1.10
2022-09-09T22:53:20.824Z,1.00
2022-09-09T22:55:58.455Z,1.07
2022-09-09T22:58:26.787Z,1.20
2022-09-09T23:00:58.671Z,1.17
2022-09-09T23:03:26.438Z,1.07
2022-09-09T23:05:56.603Z,1.10
2022-09-09T23:08:25.691Z,1.10
2022-09-09T23:10:55.825Z,1.53
2022-09-09T23:13:25.532Z,1.10
2022-09-09T23:15:55.192Z,1.33
2022-09-09T23:18:26.838Z,1.20
2022-09-09T23:21:00.511Z,1.60
2022-09-09T23:23:28.502Z,1.33
2022-09-09T23:25:56.225Z,1.27
2022-09-09T23:28:23.883Z,1.57
2022-09-09T23:30:51.709Z,0.90
2022-09-09T23:33:19.460Z,1.00
2022-09-09T23:35:48.496Z,1.40
2022-09-09T23:38:16.159Z,1.07
2022-09-09T23:40:46.941Z,1.73
2022-09-09T23:43:14.641Z,1.17
2022-09-09T23:45:42.323Z,1.37
2022-09-09T23:48:09.936Z,1.33
2022-09-09T23:50:37.629Z,1.17
2022-09-09T23:53:07.192Z,1.10
2022-09-09T23:55:35.777Z,1.50
2022-09-09T23:58:03.693Z,1.10
